sensor_id;sensor_type;location;lat;lon;timestamp;P1;durP1;ratioP1;P2;durP2;ratioP2
15293;SDS011;7748;52.474;13.454;2022-10-17T00:01:03;13.73;;;8.87;;
15293;SDS011;7748;52.474;13.454;2022-10-17T00:03:32;12.33;;;7.97;;
15293;SDS011;7748;52.474;13.454;2022-10-17T00:06:03;10.40;;;7.83;;
15293;SDS011;7748;52.474;13.454;2022-10-17T00:08:33;10.73;;;7.10;;
15293;SDS011;7748;52.474;13.454;2022-10-17T00:11:02;13.57;;;8.73;;
15293;SDS011;7748;52.474;13.454;2022-10-17T00:13:31;11.20;;;7.87;;
15293;SDS011;7748;52.474;13.454;2022-10-17T00:16:00;12.67;;;7.87;;
15293;SDS011;7748;52.474;13.454;2022-10-17T00:18:29;12.20;;;8.07;;
15293;SDS011;7748;52.474;13.454;2022-10-17T00:20:57;14.43;;;7.40;;
15293;SDS011;7748;52.474;13.454;2022-10-17T00:23:24;12.03;;;7.43;;
15293;SDS011;7748;52.474;13.454;2022-10-17T00:25:59;11.10;;;7.50;;
15293;SDS011;7748;52.474;13.454;2022-10-17T00:28:27;13.80;;;8.60;;
15293;SDS011;7748;52.474;13.454;2022-10-17T00:30:55;12.13;;;7.93;;
15293;SDS011;7748;52.474;13.454;2022-10-17T00:33:23;11.73;;;7.60;;
15293;SDS011;7748;52.474;13.454;2022-10-17T00:36:02;10.37;;;6.73;;
15293;SDS011;7748;52.474;13.454;2022-10-17T00:38:32;9.07;;;6.67;;
15293;SDS011;7748;52.474;13.454;2022-10-17T00:41:01;14.60;;;7.67;;
15293;SDS011;7748;52.474;13.454;2022-10-17T00:43:33;18.33;;;8.43;;
15293;SDS011;7748;52.474;13.454;2022-10-17T00:46:15;10.87;;;7.53;;
15293;SDS011;7748;52.474;13.454;2022-10-17T00:48:43;8.70;;;7.20;;
15293;SDS011;7748;52.474;13.454;2022-10-17T00:51:14;8.87;;;7.30;;
15293;SDS011;7748;52.474;13.454;2022-10-17T00:53:42;12.17;;;6.90;;
15293;SDS011;7748;52.474;13.454;2022-10-17T00:56:10;10.83;;;6.70;;
15293;SDS011;7748;52.474;13.454;2022-10-17T00:58:39;8.37;;;5.83;;
15293;SDS011;7748;52.474;13.454;2022-10-17T01:01:07;8.83;;;6.33;;
15293;SDS011;7748;52.474;13.454;2022-10-17T01:03:35;8.93;;;6.37;;
15293;SDS011;7748;52.474;13.454;2022-10-17T01:06:03;9.03;;;6.33;;
15293;SDS011;7748;52.474;13.454;2022-10-17T01:08:32;17.33;;;7.27;;
15293;SDS011;7748;52.474;13.454;2022-10-17T01:11:04;10.33;;;6.63;;
15293;SDS011;7748;52.474;13.454;2022-10-17T01:13:41;9.40;;;6.43;;
15293;SDS011;7748;52.474;13.454;2022-10-17T01:16:12;12.40;;;6.93;;
15293;SDS011;7748;52.474;13.454;2022-10-17T01:18:50;9.50;;;5.47;;
15293;SDS011;7748;52.474;13.454;2022-10-17T01:21:32;8.97;;;5.80;;
15293;SDS011;7748;52.474;13.454;2022-10-17T01:33:26;8.73;;;5.43;;
15293;SDS011;7748;52.474;13.454;2022-10-17T01:36:00;7.97;;;4.93;;
15293;SDS011;7748;52.474;13.454;2022-10-17T01:38:35;6.33;;;5.40;;
15293;SDS011;7748;52.474;13.454;2022-10-17T01:41:12;6.97;;;5.53;;
15293;SDS011;7748;52.474;13.454;2022-10-17T01:43:50;5.57;;;4.63;;
15293;SDS011;7748;52.474;13.454;2022-10-17T01:46:25;5.77;;;5.17;;
15293;SDS011;7748;52.474;13.454;2022-10-17T01:48:54;8.03;;;5.17;;
15293;SDS011;7748;52.474;13.454;2022-10-17T01:51:27;7.43;;;5.70;;
15293;SDS011;7748;52.474;13.454;2022-10-17T01:53:59;5.83;;;5.23;;
15293;SDS011;7748;52.474;13.454;2022-10-17T01:56:30;8.20;;;5.10;;
15293;SDS011;7748;52.474;13.454;2022-10-17T01:59:02;5.73;;;5.07;;
15293;SDS011;7748;52.474;13.454;2022-10-17T02:01:35;6.73;;;5.23;;
15293;SDS011;7748;52.474;13.454;2022-10-17T02:04:04;8.30;;;5.23;;
15293;SDS011;7748;52.474;13.454;2022-10-17T02:06:35;5.90;;;5.03;;
15293;SDS011;7748;52.474;13.454;2022-10-17T02:09:14;8.97;;;5.57;;
15293;SDS011;7748;52.474;13.454;2022-10-17T02:11:44;5.40;;;4.80;;
15293;SDS011;7748;52.474;13.454;2022-10-17T02:14:36;7.97;;;5.33;;
15293;SDS011;7748;52.474;13.454;2022-10-17T02:17:17;7.87;;;5.57;;
15293;SDS011;7748;52.474;13.454;2022-10-17T02:19:54;12.03;;;6.20;;
15293;SDS011;7748;52.474;13.454;2022-10-17T02:22:34;5.60;;;4.90;;
15293;SDS011;7748;52.474;13.454;2022-10-17T02:25:08;6.33;;;5.50;;
15293;SDS011;7748;52.474;13.454;2022-10-17T02:27:42;6.53;;;5.23;;
15293;SDS011;7748;52.474;13.454;2022-10-17T02:30:18;8.23;;;4.93;;
15293;SDS011;7748;52.474;13.454;2022-10-17T02:32:54;9.50;;;6.40;;
15293;SDS011;7748;52.474;13.454;2022-10-17T02:35:26;6.53;;;5.60;;
15293;SDS011;7748;52.474;13.454;2022-10-17T02:37:56;6.67;;;5.40;;
15293;SDS011;7748;52.474;13.454;2022-10-17T02:40:26;6.73;;;5.60;;
15293;SDS011;7748;52.474;13.454;2022-10-17T02:42:57;6.97;;;5.33;;
15293;SDS011;7748;52.474;13.454;2022-10-17T02:45:26;10.03;;;6.07;;
15293;SDS011;7748;52.474;13.454;2022-10-17T02:48:03;7.50;;;5.43;;
15293;SDS011;7748;52.474;13.454;2022-10-17T02:50:37;8.23;;;5.60;;
15293;SDS011;7748;52.474;13.454;2022-10-17T02:53:16;6.60;;;5.57;;
15293;SDS011;7748;52.474;13.454;2022-10-17T02:55:53;7.23;;;5.60;;
15293;SDS011;7748;52.474;13.454;2022-10-17T02:58:26;7.37;;;5.63;;
15293;SDS011;7748;52.474;13.454;2022-10-17T03:00:58;9.70;;;6.03;;
15293;SDS011;7748;52.474;13.454;2022-10-17T03:03:29;5.93;;;5.13;;
15293;SDS011;7748;52.474;13.454;2022-10-17T03:05:58;6.93;;;5.60;;
15293;SDS011;7748;52.474;13.454;2022-10-17T03:08:26;8.73;;;6.17;;
15293;SDS011;7748;52.474;13.454;2022-10-17T03:10:54;5.97;;;5.37;;
15293;SDS011;7748;52.474;13.454;2022-10-17T03:13:22;7.70;;;5.47;;
15293;SDS011;7748;52.474;13.454;2022-10-17T03:15:50;6.90;;;5.37;;
15293;SDS011;7748;52.474;13.454;2022-10-17T03:18:17;7.23;;;5.80;;
15293;SDS011;7748;52.474;13.454;2022-10-17T03:20:46;8.80;;;5.77;;
15293;SDS011;7748;52.474;13.454;2022-10-17T03:23:14;6.67;;;5.57;;
15293;SDS011;7748;52.474;13.454;2022-10-17T03:25:42;7.17;;;5.97;;
15293;SDS011;7748;52.474;13.454;2022-10-17T03:28:10;6.93;;;5.87;;
15293;SDS011;7748;52.474;13.454;2022-10-17T03:30:38;10.23;;;6.17;;
15293;SDS011;7748;52.474;13.454;2022-10-17T03:33:06;7.13;;;6.00;;
15293;SDS011;7748;52.474;13.454;2022-10-17T03:35:33;9.33;;;6.43;;
15293;SDS011;7748;52.474;13.454;2022-10-17T03:38:07;7.53;;;5.43;;
15293;SDS011;7748;52.474;13.454;2022-10-17T03:40:34;7.90;;;5.90;;
15293;SDS011;7748;52.474;13.454;2022-10-17T03:43:02;7.67;;;6.87;;
15293;SDS011;7748;52.474;13.454;2022-10-17T03:45:30;6.80;;;5.70;;
15293;SDS011;7748;52.474;13.454;2022-10-17T03:47:58;6.47;;;5.67;;
15293;SDS011;7748;52.474;13.454;2022-10-17T03:50:25;6.73;;;5.63;;
15293;SDS011;7748;52.474;13.454;2022-10-17T03:52:53;8.27;;;6.07;;
15293;SDS011;7748;52.474;13.454;2022-10-17T03:55:22;7.40;;;6.17;;
15293;SDS011;7748;52.474;13.454;2022-10-17T03:57:50;8.13;;;6.13;;
15293;SDS011;7748;52.474;13.454;2022-10-17T04:00:18;10.27;;;6.50;;
15293;SDS011;7748;52.474;13.454;2022-10-17T04:02:46;7.33;;;5.90;;
15293;SDS011;7748;52.474;13.454;2022-10-17T04:05:13;9.57;;;6.60;;
15293;SDS011;7748;52.474;13.454;2022-10-17T04:07:41;14.23;;;7.90;;
15293;SDS011;7748;52.474;13.454;2022-10-17T04:10:09;7.83;;;6.20;;
15293;SDS011;7748;52.474;13.454;2022-10-17T04:12:39;9.33;;;6.27;;
15293;SDS011;7748;52.474;13.454;2022-10-17T04:15:08;10.07;;;7.17;;
15293;SDS011;7748;52.474;13.454;2022-10-17T04:17:36;7.87;;;6.40;;
15293;SDS011;7748;52.474;13.454;2022-10-17T04:20:04;9.77;;;7.47;;
15293;SDS011;7748;52.474;13.454;2022-10-17T04:22:32;7.37;;;6.57;;
15293;SDS011;7748;52.474;13.454;2022-10-17T04:25:00;9.37;;;6.33;;
15293;SDS011;7748;52.474;13.454;2022-10-17T04:27:28;8.33;;;7.37;;
15293;SDS011;7748;52.474;13.454;2022-10-17T04:29:57;9.63;;;7.10;;
15293;SDS011;7748;52.474;13.454;2022-10-17T04:32:25;15.27;;;12.00;;
15293;SDS011;7748;52.474;13.454;2022-10-17T04:34:53;13.13;;;9.83;;
15293;SDS011;7748;52.474;13.454;2022-10-17T04:37:20;10.90;;;6.40;;
15293;SDS011;7748;52.474;13.454;2022-10-17T04:39:48;10.30;;;7.03;;
15293;SDS011;7748;52.474;13.454;2022-10-17T04:42:16;11.10;;;6.33;;
15293;SDS011;7748;52.474;13.454;2022-10-17T04:44:46;7.23;;;6.07;;
15293;SDS011;7748;52.474;13.454;2022-10-17T04:47:15;7.90;;;6.50;;
15293;SDS011;7748;52.474;13.454;2022-10-17T04:49:44;7.80;;;6.67;;
15293;SDS011;7748;52.474;13.454;2022-10-17T04:52:12;8.57;;;6.47;;
15293;SDS011;7748;52.474;13.454;2022-10-17T04:54:40;12.33;;;10.00;;
15293;SDS011;7748;52.474;13.454;2022-10-17T04:57:11;11.13;;;7.83;;
15293;SDS011;7748;52.474;13.454;2022-10-17T04:59:45;9.47;;;7.03;;
15293;SDS011;7748;52.474;13.454;2022-10-17T05:02:13;10.97;;;7.07;;
15293;SDS011;7748;52.474;13.454;2022-10-17T05:04:47;9.53;;;7.80;;
15293;SDS011;7748;52.474;13.454;2022-10-17T05:07:15;13.50;;;8.20;;
15293;SDS011;7748;52.474;13.454;2022-10-17T05:09:47;11.57;;;7.67;;
15293;SDS011;7748;52.474;13.454;2022-10-17T05:12:21;11.63;;;7.33;;
15293;SDS011;7748;52.474;13.454;2022-10-17T05:14:49;11.60;;;7.77;;
15293;SDS011;7748;52.474;13.454;2022-10-17T05:17:29;12.33;;;8.00;;
15293;SDS011;7748;52.474;13.454;2022-10-17T05:19:58;11.23;;;7.00;;
15293;SDS011;7748;52.474;13.454;2022-10-17T05:22:27;11.03;;;7.27;;
15293;SDS011;7748;52.474;13.454;2022-10-17T05:24:55;7.93;;;7.13;;
15293;SDS011;7748;52.474;13.454;2022-10-17T05:27:22;9.93;;;7.43;;
15293;SDS011;7748;52.474;13.454;2022-10-17T05:29:53;10.40;;;7.73;;
15293;SDS011;7748;52.474;13.454;2022-10-17T05:32:21;10.73;;;7.83;;
15293;SDS011;7748;52.474;13.454;2022-10-17T05:34:49;16.67;;;8.60;;
15293;SDS011;7748;52.474;13.454;2022-10-17T05:37:18;11.60;;;8.53;;
15293;SDS011;7748;52.474;13.454;2022-10-17T05:39:46;10.03;;;7.73;;
15293;SDS011;7748;52.474;13.454;2022-10-17T05:42:16;10.27;;;8.00;;
15293;SDS011;7748;52.474;13.454;2022-10-17T05:44:48;11.50;;;7.27;;
15293;SDS011;7748;52.474;13.454;2022-10-17T05:47:17;9.97;;;7.07;;
15293;SDS011;7748;52.474;13.454;2022-10-17T05:49:46;8.33;;;7.43;;
15293;SDS011;7748;52.474;13.454;2022-10-17T05:52:19;9.93;;;7.97;;
15293;SDS011;7748;52.474;13.454;2022-10-17T05:54:47;10.63;;;8.13;;
15293;SDS011;7748;52.474;13.454;2022-10-17T05:57:15;12.83;;;8.53;;
15293;SDS011;7748;52.474;13.454;2022-10-17T05:59:43;10.40;;;8.37;;
15293;SDS011;7748;52.474;13.454;2022-10-17T06:02:10;9.17;;;8.27;;
15293;SDS011;7748;52.474;13.454;2022-10-17T06:04:42;11.93;;;8.23;;
15293;SDS011;7748;52.474;13.454;2022-10-17T06:07:14;9.93;;;8.17;;
15293;SDS011;7748;52.474;13.454;2022-10-17T06:09:50;9.77;;;7.30;;
15293;SDS011;7748;52.474;13.454;2022-10-17T06:15:12;12.47;;;7.70;;
15293;SDS011;7748;52.474;13.454;2022-10-17T06:17:44;9.27;;;7.97;;
15293;SDS011;7748;52.474;13.454;2022-10-17T06:20:13;13.53;;;7.33;;
15293;SDS011;7748;52.474;13.454;2022-10-17T06:22:42;13.33;;;8.03;;
15293;SDS011;7748;52.474;13.454;2022-10-17T06:25:28;12.13;;;8.23;;
15293;SDS011;7748;52.474;13.454;2022-10-17T06:28:01;14.70;;;8.37;;
15293;SDS011;7748;52.474;13.454;2022-10-17T06:30:37;10.63;;;8.10;;
15293;SDS011;7748;52.474;13.454;2022-10-17T06:33:05;9.70;;;7.80;;
15293;SDS011;7748;52.474;13.454;2022-10-17T06:35:34;9.87;;;7.33;;
15293;SDS011;7748;52.474;13.454;2022-10-17T06:38:02;12.67;;;7.73;;
15293;SDS011;7748;52.474;13.454;2022-10-17T06:40:39;12.53;;;7.10;;
15293;SDS011;7748;52.474;13.454;2022-10-17T06:43:26;10.43;;;8.33;;
15293;SDS011;7748;52.474;13.454;2022-10-17T06:46:05;11.90;;;7.57;;
15293;SDS011;7748;52.474;13.454;2022-10-17T06:48:39;12.53;;;7.17;;
15293;SDS011;7748;52.474;13.454;2022-10-17T06:51:10;11.20;;;7.77;;
15293;SDS011;7748;52.474;13.454;2022-10-17T06:53:39;10.47;;;7.77;;
15293;SDS011;7748;52.474;13.454;2022-10-17T06:56:15;10.10;;;7.10;;
15293;SDS011;7748;52.474;13.454;2022-10-17T06:58:45;12.40;;;7.10;;
15293;SDS011;7748;52.474;13.454;2022-10-17T07:01:14;10.03;;;6.47;;
15293;SDS011;7748;52.474;13.454;2022-10-17T07:03:46;10.33;;;6.60;;
15293;SDS011;7748;52.474;13.454;2022-10-17T07:06:14;7.63;;;6.00;;
15293;SDS011;7748;52.474;13.454;2022-10-17T07:08:43;8.70;;;6.57;;
15293;SDS011;7748;52.474;13.454;2022-10-17T07:11:14;10.03;;;6.40;;
15293;SDS011;7748;52.474;13.454;2022-10-17T07:13:55;10.67;;;7.53;;
15293;SDS011;7748;52.474;13.454;2022-10-17T07:16:30;8.13;;;6.90;;
15293;SDS011;7748;52.474;13.454;2022-10-17T07:19:10;10.10;;;5.90;;
15293;SDS011;7748;52.474;13.454;2022-10-17T07:21:59;7.20;;;5.73;;
15293;SDS011;7748;52.474;13.454;2022-10-17T07:24:28;9.07;;;6.13;;
15293;SDS011;7748;52.474;13.454;2022-10-17T07:26:58;11.87;;;6.87;;
15293;SDS011;7748;52.474;13.454;2022-10-17T07:29:26;9.60;;;6.27;;
15293;SDS011;7748;52.474;13.454;2022-10-17T07:31:57;7.47;;;6.20;;
15293;SDS011;7748;52.474;13.454;2022-10-17T07:34:25;17.27;;;7.20;;
15293;SDS011;7748;52.474;13.454;2022-10-17T07:36:56;7.80;;;6.20;;
15293;SDS011;7748;52.474;13.454;2022-10-17T07:39:26;12.20;;;6.73;;
15293;SDS011;7748;52.474;13.454;2022-10-17T07:42:55;13.47;;;7.70;;
15293;SDS011;7748;52.474;13.454;2022-10-17T07:48:27;8.53;;;5.63;;
15293;SDS011;7748;52.474;13.454;2022-10-17T07:50:55;12.90;;;7.53;;
15293;SDS011;7748;52.474;13.454;2022-10-17T07:53:23;10.77;;;6.70;;
15293;SDS011;7748;52.474;13.454;2022-10-17T07:55:51;9.67;;;6.20;;
15293;SDS011;7748;52.474;13.454;2022-10-17T07:58:21;8.20;;;5.73;;
15293;SDS011;7748;52.474;13.454;2022-10-17T08:00:49;8.00;;;5.33;;
15293;SDS011;7748;52.474;13.454;2022-10-17T08:03:17;7.73;;;6.37;;
15293;SDS011;7748;52.474;13.454;2022-10-17T08:05:46;7.77;;;6.17;;
15293;SDS011;7748;52.474;13.454;2022-10-17T08:08:19;8.10;;;6.00;;
15293;SDS011;7748;52.474;13.454;2022-10-17T08:10:47;13.10;;;7.50;;
15293;SDS011;7748;52.474;13.454;2022-10-17T08:13:16;8.87;;;5.97;;
15293;SDS011;7748;52.474;13.454;2022-10-17T08:15:48;6.53;;;5.07;;
15293;SDS011;7748;52.474;13.454;2022-10-17T08:18:16;7.70;;;5.40;;
15293;SDS011;7748;52.474;13.454;2022-10-17T08:20:44;10.20;;;5.50;;
15293;SDS011;7748;52.474;13.454;2022-10-17T08:23:13;8.57;;;5.23;;
15293;SDS011;7748;52.474;13.454;2022-10-17T08:25:43;8.40;;;5.03;;
15293;SDS011;7748;52.474;13.454;2022-10-17T08:28:11;9.87;;;5.60;;
15293;SDS011;7748;52.474;13.454;2022-10-17T08:30:39;11.17;;;6.83;;
15293;SDS011;7748;52.474;13.454;2022-10-17T08:33:08;10.10;;;6.37;;
15293;SDS011;7748;52.474;13.454;2022-10-17T08:35:36;11.63;;;4.73;;
15293;SDS011;7748;52.474;13.454;2022-10-17T08:38:05;14.50;;;6.63;;
15293;SDS011;7748;52.474;13.454;2022-10-17T08:40:47;9.60;;;5.27;;
15293;SDS011;7748;52.474;13.454;2022-10-17T08:43:31;6.27;;;4.73;;
15293;SDS011;7748;52.474;13.454;2022-10-17T08:46:09;9.20;;;4.73;;
15293;SDS011;7748;52.474;13.454;2022-10-17T08:48:41;7.27;;;4.53;;
15293;SDS011;7748;52.474;13.454;2022-10-17T08:51:12;9.80;;;5.20;;
15293;SDS011;7748;52.474;13.454;2022-10-17T08:53:48;7.57;;;4.73;;
15293;SDS011;7748;52.474;13.454;2022-10-17T08:56:21;9.27;;;5.13;;
15293;SDS011;7748;52.474;13.454;2022-10-17T08:59:11;5.00;;;3.90;;
15293;SDS011;7748;52.474;13.454;2022-10-17T09:01:41;6.73;;;5.40;;
15293;SDS011;7748;52.474;13.454;2022-10-17T09:04:19;10.53;;;4.53;;
15293;SDS011;7748;52.474;13.454;2022-10-17T09:07:03;9.07;;;6.40;;
15293;SDS011;7748;52.474;13.454;2022-10-17T09:09:38;8.67;;;3.80;;
15293;SDS011;7748;52.474;13.454;2022-10-17T09:12:16;9.90;;;4.30;;
15293;SDS011;7748;52.474;13.454;2022-10-17T09:14:50;5.70;;;3.83;;
15293;SDS011;7748;52.474;13.454;2022-10-17T09:17:33;5.13;;;3.73;;
15293;SDS011;7748;52.474;13.454;2022-10-17T09:20:09;8.07;;;4.33;;
15293;SDS011;7748;52.474;13.454;2022-10-17T09:25:25;8.37;;;4.43;;
15293;SDS011;7748;52.474;13.454;2022-10-17T09:27:55;7.73;;;4.37;;
15293;SDS011;7748;52.474;13.454;2022-10-17T09:30:33;17.23;;;6.70;;
15293;SDS011;7748;52.474;13.454;2022-10-17T09:33:12;4.87;;;3.97;;
15293;SDS011;7748;52.474;13.454;2022-10-17T09:36:02;4.60;;;3.87;;
15293;SDS011;7748;52.474;13.454;2022-10-17T09:38:35;6.57;;;4.50;;
15293;SDS011;7748;52.474;13.454;2022-10-17T09:41:13;4.57;;;3.60;;
15293;SDS011;7748;52.474;13.454;2022-10-17T09:44:11;6.43;;;4.27;;
15293;SDS011;7748;52.474;13.454;2022-10-17T09:46:49;5.17;;;3.73;;
15293;SDS011;7748;52.474;13.454;2022-10-17T09:49:28;8.83;;;4.83;;
15293;SDS011;7748;52.474;13.454;2022-10-17T09:52:01;10.30;;;6.03;;
15293;SDS011;7748;52.474;13.454;2022-10-17T09:54:42;9.90;;;5.43;;
15293;SDS011;7748;52.474;13.454;2022-10-17T09:57:12;4.87;;;3.60;;
15293;SDS011;7748;52.474;13.454;2022-10-17T09:59:42;11.77;;;5.80;;
15293;SDS011;7748;52.474;13.454;2022-10-17T10:02:17;8.70;;;4.87;;
15293;SDS011;7748;52.474;13.454;2022-10-17T10:04:51;9.90;;;5.80;;
15293;SDS011;7748;52.474;13.454;2022-10-17T10:07:34;10.87;;;6.80;;
15293;SDS011;7748;52.474;13.454;2022-10-17T10:10:21;7.47;;;5.07;;
15293;SDS011;7748;52.474;13.454;2022-10-17T10:13:01;9.60;;;5.93;;
15293;SDS011;7748;52.474;13.454;2022-10-17T10:15:35;9.37;;;5.13;;
15293;SDS011;7748;52.474;13.454;2022-10-17T10:18:27;4.33;;;3.63;;
15293;SDS011;7748;52.474;13.454;2022-10-17T10:21:08;9.70;;;5.43;;
15293;SDS011;7748;52.474;13.454;2022-10-17T10:23:39;9.10;;;4.97;;
15293;SDS011;7748;52.474;13.454;2022-10-17T10:26:19;4.23;;;3.30;;
15293;SDS011;7748;52.474;13.454;2022-10-17T10:28:54;14.07;;;6.87;;
15293;SDS011;7748;52.474;13.454;2022-10-17T10:31:25;13.63;;;6.77;;
15293;SDS011;7748;52.474;13.454;2022-10-17T10:33:55;8.83;;;5.23;;
15293;SDS011;7748;52.474;13.454;2022-10-17T10:36:40;7.93;;;4.03;;
15293;SDS011;7748;52.474;13.454;2022-10-17T10:39:13;10.33;;;5.27;;
15293;SDS011;7748;52.474;13.454;2022-10-17T10:41:52;7.73;;;4.23;;
15293;SDS011;7748;52.474;13.454;2022-10-17T10:44:21;7.73;;;5.00;;
15293;SDS011;7748;52.474;13.454;2022-10-17T10:49:40;8.53;;;3.97;;
15293;SDS011;7748;52.474;13.454;2022-10-17T10:52:11;6.77;;;4.00;;
15293;SDS011;7748;52.474;13.454;2022-10-17T10:54:49;4.83;;;4.00;;
15293;SDS011;7748;52.474;13.454;2022-10-17T10:57:24;6.13;;;3.50;;
15293;SDS011;7748;52.474;13.454;2022-10-17T10:59:59;8.83;;;4.87;;
15293;SDS011;7748;52.474;13.454;2022-10-17T11:02:34;7.60;;;4.10;;
15293;SDS011;7748;52.474;13.454;2022-10-17T11:05:09;9.70;;;3.63;;
15293;SDS011;7748;52.474;13.454;2022-10-17T11:07:44;4.77;;;4.03;;
15293;SDS011;7748;52.474;13.454;2022-10-17T11:10:21;6.80;;;4.20;;
15293;SDS011;7748;52.474;13.454;2022-10-17T11:12:53;6.63;;;3.83;;
15293;SDS011;7748;52.474;13.454;2022-10-17T11:15:27;10.60;;;3.77;;
15293;SDS011;7748;52.474;13.454;2022-10-17T11:18:02;7.00;;;3.50;;
15293;SDS011;7748;52.474;13.454;2022-10-17T11:20:35;8.73;;;4.40;;
15293;SDS011;7748;52.474;13.454;2022-10-17T11:23:13;5.57;;;3.77;;
15293;SDS011;7748;52.474;13.454;2022-10-17T11:25:49;8.00;;;4.27;;
15293;SDS011;7748;52.474;13.454;2022-10-17T11:28:19;5.53;;;4.40;;
15293;SDS011;7748;52.474;13.454;2022-10-17T11:30:50;6.57;;;3.80;;
15293;SDS011;7748;52.474;13.454;2022-10-17T11:33:24;6.93;;;3.30;;
15293;SDS011;7748;52.474;13.454;2022-10-17T11:35:56;6.55;;;3.85;;
15293;SDS011;7748;52.474;13.454;2022-10-17T11:38:34;7.10;;;3.67;;
15293;SDS011;7748;52.474;13.454;2022-10-17T11:41:10;5.83;;;4.93;;
15293;SDS011;7748;52.474;13.454;2022-10-17T11:43:44;5.13;;;3.53;;
15293;SDS011;7748;52.474;13.454;2022-10-17T11:46:19;16.63;;;11.33;;
15293;SDS011;7748;52.474;13.454;2022-10-17T11:48:57;9.60;;;3.43;;
15293;SDS011;7748;52.474;13.454;2022-10-17T11:51:35;7.77;;;3.87;;
15293;SDS011;7748;52.474;13.454;2022-10-17T11:54:27;6.50;;;3.60;;
15293;SDS011;7748;52.474;13.454;2022-10-17T11:57:05;11.97;;;4.90;;
15293;SDS011;7748;52.474;13.454;2022-10-17T11:59:54;4.13;;;3.30;;
15293;SDS011;7748;52.474;13.454;2022-10-17T12:02:31;5.60;;;3.60;;
15293;SDS011;7748;52.474;13.454;2022-10-17T12:05:11;5.60;;;4.10;;
15293;SDS011;7748;52.474;13.454;2022-10-17T12:07:49;6.13;;;4.90;;
15293;SDS011;7748;52.474;13.454;2022-10-17T12:10:26;7.03;;;3.47;;
15293;SDS011;7748;52.474;13.454;2022-10-17T12:19:18;7.23;;;3.57;;
15293;SDS011;7748;52.474;13.454;2022-10-17T12:21:56;9.97;;;5.97;;
15293;SDS011;7748;52.474;13.454;2022-10-17T12:24:29;7.97;;;4.00;;
15293;SDS011;7748;52.474;13.454;2022-10-17T12:27:23;4.67;;;3.87;;
15293;SDS011;7748;52.474;13.454;2022-10-17T12:30:02;7.10;;;3.77;;
15293;SDS011;7748;52.474;13.454;2022-10-17T12:32:34;8.17;;;3.77;;
15293;SDS011;7748;52.474;13.454;2022-10-17T12:35:23;13.13;;;3.77;;
15293;SDS011;7748;52.474;13.454;2022-10-17T12:38:03;11.17;;;4.73;;
15293;SDS011;7748;52.474;13.454;2022-10-17T12:43:38;4.10;;;3.37;;
15293;SDS011;7748;52.474;13.454;2022-10-17T12:46:41;5.80;;;3.80;;
15293;SDS011;7748;52.474;13.454;2022-10-17T12:52:19;5.33;;;3.60;;
15293;SDS011;7748;52.474;13.454;2022-10-17T12:54:54;10.37;;;3.30;;
15293;SDS011;7748;52.474;13.454;2022-10-17T12:57:40;10.33;;;4.20;;
15293;SDS011;7748;52.474;13.454;2022-10-17T13:00:16;6.63;;;4.70;;
15293;SDS011;7748;52.474;13.454;2022-10-17T13:02:47;7.57;;;4.40;;
15293;SDS011;7748;52.474;13.454;2022-10-17T13:05:21;8.63;;;4.90;;
15293;SDS011;7748;52.474;13.454;2022-10-17T13:07:53;7.07;;;3.90;;
15293;SDS011;7748;52.474;13.454;2022-10-17T13:10:25;10.67;;;5.40;;
15293;SDS011;7748;52.474;13.454;2022-10-17T13:12:57;8.63;;;6.63;;
15293;SDS011;7748;52.474;13.454;2022-10-17T13:15:31;7.60;;;5.03;;
15293;SDS011;7748;52.474;13.454;2022-10-17T13:18:01;10.57;;;4.80;;
15293;SDS011;7748;52.474;13.454;2022-10-17T13:20:30;6.93;;;4.47;;
15293;SDS011;7748;52.474;13.454;2022-10-17T13:22:58;6.00;;;4.33;;
15293;SDS011;7748;52.474;13.454;2022-10-17T13:25:27;5.40;;;3.10;;
15293;SDS011;7748;52.474;13.454;2022-10-17T13:28:10;5.20;;;4.30;;
15293;SDS011;7748;52.474;13.454;2022-10-17T13:30:44;11.77;;;6.77;;
15293;SDS011;7748;52.474;13.454;2022-10-17T13:33:17;10.10;;;6.67;;
15293;SDS011;7748;52.474;13.454;2022-10-17T13:35:56;15.23;;;6.00;;
15293;SDS011;7748;52.474;13.454;2022-10-17T13:38:27;5.60;;;3.53;;
15293;SDS011;7748;52.474;13.454;2022-10-17T13:41:02;6.97;;;4.00;;
15293;SDS011;7748;52.474;13.454;2022-10-17T13:43:50;4.83;;;4.33;;
15293;SDS011;7748;52.474;13.454;2022-10-17T13:46:22;5.70;;;4.57;;
15293;SDS011;7748;52.474;13.454;2022-10-17T13:49:09;5.80;;;4.83;;
15293;SDS011;7748;52.474;13.454;2022-10-17T13:51:44;7.50;;;5.13;;
15293;SDS011;7748;52.474;13.454;2022-10-17T13:54:18;8.60;;;4.10;;
15293;SDS011;7748;52.474;13.454;2022-10-17T13:56:58;6.27;;;4.07;;
15293;SDS011;7748;52.474;13.454;2022-10-17T13:59:28;9.90;;;4.10;;
15293;SDS011;7748;52.474;13.454;2022-10-17T14:02:00;10.30;;;3.80;;
15293;SDS011;7748;52.474;13.454;2022-10-17T14:04:28;8.17;;;4.97;;
15293;SDS011;7748;52.474;13.454;2022-10-17T14:07:22;7.53;;;3.90;;
15293;SDS011;7748;52.474;13.454;2022-10-17T14:09:59;7.03;;;3.67;;
15293;SDS011;7748;52.474;13.454;2022-10-17T14:12:31;9.23;;;4.57;;
15293;SDS011;7748;52.474;13.454;2022-10-17T14:15:01;8.27;;;4.27;;
15293;SDS011;7748;52.474;13.454;2022-10-17T14:17:38;6.13;;;4.17;;
15293;SDS011;7748;52.474;13.454;2022-10-17T14:20:07;8.57;;;4.00;;
15293;SDS011;7748;52.474;13.454;2022-10-17T14:23:25;6.10;;;3.47;;
15293;SDS011;7748;52.474;13.454;2022-10-17T14:26:08;8.17;;;5.33;;
15293;SDS011;7748;52.474;13.454;2022-10-17T14:28:39;7.00;;;3.73;;
15293;SDS011;7748;52.474;13.454;2022-10-17T14:31:10;9.77;;;5.30;;
15293;SDS011;7748;52.474;13.454;2022-10-17T14:33:48;8.63;;;4.90;;
15293;SDS011;7748;52.474;13.454;2022-10-17T14:36:18;9.87;;;7.43;;
15293;SDS011;7748;52.474;13.454;2022-10-17T14:38:49;12.90;;;6.67;;
15293;SDS011;7748;52.474;13.454;2022-10-17T14:41:20;10.90;;;4.83;;
15293;SDS011;7748;52.474;13.454;2022-10-17T14:44:15;7.33;;;4.23;;
15293;SDS011;7748;52.474;13.454;2022-10-17T14:46:48;4.43;;;3.70;;
15293;SDS011;7748;52.474;13.454;2022-10-17T14:49:22;4.67;;;3.20;;
15293;SDS011;7748;52.474;13.454;2022-10-17T14:52:22;13.53;;;4.10;;
15293;SDS011;7748;52.474;13.454;2022-10-17T14:54:54;11.63;;;4.10;;
15293;SDS011;7748;52.474;13.454;2022-10-17T14:57:25;7.43;;;4.07;;
15293;SDS011;7748;52.474;13.454;2022-10-17T14:59:55;7.17;;;4.97;;
15293;SDS011;7748;52.474;13.454;2022-10-17T15:02:23;22.77;;;13.43;;
15293;SDS011;7748;52.474;13.454;2022-10-17T15:04:53;14.97;;;6.57;;
15293;SDS011;7748;52.474;13.454;2022-10-17T15:07:21;7.73;;;5.03;;
15293;SDS011;7748;52.474;13.454;2022-10-17T15:09:50;8.40;;;5.13;;
15293;SDS011;7748;52.474;13.454;2022-10-17T15:12:21;8.07;;;4.73;;
15293;SDS011;7748;52.474;13.454;2022-10-17T15:14:51;7.70;;;4.40;;
15293;SDS011;7748;52.474;13.454;2022-10-17T15:17:20;8.47;;;5.53;;
15293;SDS011;7748;52.474;13.454;2022-10-17T15:19:50;11.67;;;6.40;;
15293;SDS011;7748;52.474;13.454;2022-10-17T15:22:19;7.83;;;5.00;;
15293;SDS011;7748;52.474;13.454;2022-10-17T15:24:57;9.53;;;4.83;;
15293;SDS011;7748;52.474;13.454;2022-10-17T15:27:26;7.07;;;4.83;;
15293;SDS011;7748;52.474;13.454;2022-10-17T15:29:56;7.67;;;5.00;;
15293;SDS011;7748;52.474;13.454;2022-10-17T15:32:24;7.13;;;5.17;;
15293;SDS011;7748;52.474;13.454;2022-10-17T15:34:52;10.43;;;5.10;;
15293;SDS011;7748;52.474;13.454;2022-10-17T15:37:21;9.70;;;5.80;;
15293;SDS011;7748;52.474;13.454;2022-10-17T15:39:51;17.47;;;8.50;;
15293;SDS011;7748;52.474;13.454;2022-10-17T15:42:20;7.80;;;5.97;;
15293;SDS011;7748;52.474;13.454;2022-10-17T15:44:52;13.57;;;6.90;;
15293;SDS011;7748;52.474;13.454;2022-10-17T15:47:22;14.07;;;8.10;;
15293;SDS011;7748;52.474;13.454;2022-10-17T15:49:53;10.33;;;6.70;;
15293;SDS011;7748;52.474;13.454;2022-10-17T15:52:22;12.80;;;6.57;;